createdAt,value
2018-06-04T00:00:41.115Z,20.31
2018-06-04T00:01:41.284Z,20.26
2018-06-04T00:02:41.036Z,20.34
2018-06-04T00:03:41.067Z,20.30
2018-06-04T00:04:47.418Z,20.13
2018-06-04T00:05:43.068Z,20.22
2018-06-04T00:06:41.053Z,20.12
2018-06-04T00:07:41.016Z,20.34
2018-06-04T00:08:42.837Z,20.22
2018-06-04T00:09:41.073Z,20.13
2018-06-04T00:10:41.072Z,20.16
2018-06-04T00:11:41.065Z,20.23
2018-06-04T00:12:41.084Z,20.16
2018-06-04T00:13:41.078Z,20.15
2018-06-04T00:14:41.090Z,19.98
2018-06-04T00:15:41.085Z,20.04
2018-06-04T00:16:41.065Z,20.13
2018-06-04T00:17:41.115Z,20.27
2018-06-04T00:18:41.083Z,20.19
2018-06-04T00:19:41.089Z,20.17
2018-06-04T00:20:41.073Z,20.13
2018-06-04T00:21:41.105Z,20.00
2018-06-04T00:22:47.427Z,20.13
2018-06-04T00:23:42.094Z,20.12
2018-06-04T00:24:41.116Z,19.97
2018-06-04T00:25:43.112Z,20.04
2018-06-04T00:26:41.115Z,20.04
2018-06-04T00:27:41.112Z,19.92
2018-06-04T00:28:42.094Z,19.97
2018-06-04T00:29:41.056Z,19.98
2018-06-04T00:30:42.047Z,19.89
2018-06-04T00:31:41.052Z,19.97
2018-06-04T00:32:41.060Z,19.97
2018-06-04T00:33:41.093Z,19.92
2018-06-04T00:35:42.791Z,19.78
2018-06-04T00:36:41.077Z,19.80
2018-06-04T00:37:41.136Z,19.82
2018-06-04T00:38:43.079Z,19.94
2018-06-04T00:39:40.665Z,19.94
2018-06-04T00:40:55.411Z,19.85
2018-06-04T00:41:55.299Z,19.80
2018-06-04T00:42:43.110Z,19.85
2018-06-04T00:43:41.075Z,19.80
2018-06-04T00:44:43.127Z,19.82
2018-06-04T00:45:41.112Z,19.89
2018-06-04T00:46:41.115Z,19.87
2018-06-04T00:47:41.109Z,19.82
2018-06-04T00:48:41.079Z,19.82
2018-06-04T00:49:41.391Z,19.80
2018-06-04T00:50:41.102Z,19.79
2018-06-04T00:51:41.121Z,19.92
2018-06-04T00:52:41.113Z,19.94
2018-06-04T00:53:41.113Z,19.80
2018-06-04T00:54:41.106Z,19.82
2018-06-04T00:55:41.113Z,19.75
2018-06-04T00:56:41.141Z,19.68
2018-06-04T00:57:41.076Z,19.68
2018-06-04T00:58:41.109Z,19.76
2018-06-04T00:59:41.071Z,19.71
2018-06-04T01:00:41.074Z,19.67
2018-06-04T01:01:41.321Z,19.67
2018-06-04T01:02:41.079Z,19.61
2018-06-04T01:03:46.975Z,19.70
2018-06-04T01:04:41.335Z,19.67
2018-06-04T01:05:41.328Z,19.78
2018-06-04T01:06:41.311Z,19.80
2018-06-04T01:07:41.080Z,19.64
2018-06-04T01:08:41.108Z,19.61
2018-06-04T01:09:41.093Z,19.57
2018-06-04T01:10:41.313Z,19.60
2018-06-04T01:11:41.358Z,19.60
2018-06-04T01:12:41.318Z,19.50
2018-06-04T01:13:41.326Z,19.45
2018-06-04T01:14:41.330Z,19.49
2018-06-04T01:15:41.353Z,19.43
2018-06-04T01:16:41.329Z,19.45
2018-06-04T01:17:41.106Z,19.53
2018-06-04T01:18:41.321Z,19.57
2018-06-04T01:19:42.147Z,19.39
2018-06-04T01:20:41.345Z,19.45
2018-06-04T01:21:41.316Z,19.43
2018-06-04T01:22:41.164Z,19.52
2018-06-04T01:23:41.343Z,19.49
2018-06-04T01:24:41.179Z,19.47
2018-06-04T01:25:41.324Z,19.50
2018-06-04T01:26:41.321Z,19.38
2018-06-04T01:27:41.320Z,19.43
2018-06-04T01:28:41.319Z,19.27
2018-06-04T01:29:41.325Z,19.35
2018-06-04T01:30:41.326Z,19.23
2018-06-04T01:31:41.317Z,19.28
2018-06-04T01:32:41.318Z,19.24
2018-06-04T01:33:41.328Z,19.28
2018-06-04T01:34:41.108Z,19.31
2018-06-04T01:35:41.338Z,19.30
2018-06-04T01:36:41.350Z,19.34
2018-06-04T01:37:41.122Z,19.27
2018-06-04T01:38:41.058Z,19.23
2018-06-04T01:39:41.323Z,19.32
2018-06-04T01:40:41.104Z,19.28
2018-06-04T01:41:41.373Z,19.28
2018-06-04T01:42:41.101Z,19.27
2018-06-04T01:43:41.329Z,19.10
2018-06-04T01:44:41.323Z,19.16
2018-06-04T01:45:41.345Z,19.25
2018-06-04T01:46:41.351Z,19.20
2018-06-04T01:47:41.350Z,19.24
2018-06-04T01:48:41.344Z,19.13
2018-06-04T01:49:41.346Z,19.16
2018-06-04T01:50:47.327Z,19.27
2018-06-04T01:51:41.162Z,19.31
2018-06-04T01:52:41.330Z,19.24
2018-06-04T01:53:41.202Z,19.21
2018-06-04T01:54:41.413Z,19.16
2018-06-04T01:55:41.329Z,19.10
2018-06-04T01:56:41.334Z,19.15
2018-06-04T01:57:41.329Z,19.12
2018-06-04T01:58:41.332Z,19.07
2018-06-04T01:59:41.680Z,19.15
2018-06-04T02:00:41.653Z,19.02
2018-06-04T02:01:41.219Z,19.12
2018-06-04T02:02:41.153Z,19.21
2018-06-04T02:03:43.137Z,19.16
2018-06-04T02:04:43.988Z,19.12
2018-06-04T02:05:43.158Z,19.12
2018-06-04T02:06:41.144Z,19.02
2018-06-04T02:07:41.144Z,18.93
2018-06-04T02:08:43.066Z,18.96
2018-06-04T02:09:41.195Z,19.10
2018-06-04T02:10:41.131Z,19.10
2018-06-04T02:11:41.145Z,18.91
2018-06-04T02:12:41.327Z,18.96
2018-06-04T02:13:41.201Z,19.07
2018-06-04T02:15:41.213Z,19.06
2018-06-04T02:16:41.196Z,19.02
2018-06-04T02:17:41.114Z,19.07
2018-06-04T02:18:41.145Z,19.07
2018-06-04T02:19:41.112Z,19.01
2018-06-04T02:20:41.093Z,19.01
2018-06-04T02:21:41.112Z,18.97
2018-06-04T02:22:41.137Z,19.10
2018-06-04T02:23:41.217Z,18.99
2018-06-04T02:24:41.189Z,18.97
2018-06-04T02:25:41.209Z,18.99
2018-06-04T02:26:41.154Z,18.93
2018-06-04T02:27:42.969Z,18.93
2018-06-04T02:28:41.150Z,18.96
2018-06-04T02:29:41.155Z,18.87
2018-06-04T02:30:41.167Z,18.89
2018-06-04T02:31:41.188Z,18.75
2018-06-04T02:32:41.254Z,18.82
2018-06-04T02:33:41.286Z,18.84
2018-06-04T02:34:41.163Z,18.82
2018-06-04T02:35:41.276Z,18.96
2018-06-04T02:36:41.207Z,18.89
2018-06-04T02:37:43.338Z,18.96
2018-06-04T02:38:41.242Z,18.89
2018-06-04T02:39:41.300Z,18.90
2018-06-04T02:40:41.277Z,18.94
2018-06-04T02:41:41.274Z,18.94
2018-06-04T02:42:41.132Z,18.97
2018-06-04T02:43:41.340Z,18.90
2018-06-04T02:44:41.141Z,18.93
2018-06-04T02:45:41.150Z,18.96
2018-06-04T02:46:41.148Z,18.91
2018-06-04T02:47:41.207Z,18.87
2018-06-04T02:48:41.191Z,18.87
2018-06-04T02:49:41.151Z,18.89
2018-06-04T02:51:41.152Z,18.84
2018-06-04T02:52:41.203Z,18.84
2018-06-04T02:53:41.193Z,18.82
2018-06-04T02:54:41.205Z,18.83
2018-06-04T02:55:41.215Z,18.91
2018-06-04T02:56:41.213Z,18.84
2018-06-04T02:57:41.224Z,18.79
2018-06-04T02:58:41.206Z,18.89
2018-06-04T02:59:41.214Z,18.76
2018-06-04T03:00:41.213Z,18.82
2018-06-04T03:01:41.277Z,18.79
2018-06-04T03:02:41.250Z,18.71
2018-06-04T03:03:41.269Z,18.79
2018-06-04T03:04:41.278Z,18.62
2018-06-04T03:05:41.263Z,18.69
2018-06-04T03:06:40.984Z,18.74
2018-06-04T03:07:41.144Z,18.69
2018-06-04T03:08:41.144Z,18.74
2018-06-04T03:09:41.147Z,18.72
2018-06-04T03:10:41.143Z,18.68
2018-06-04T03:11:41.173Z,18.71
2018-06-04T03:12:41.153Z,18.78
2018-06-04T03:13:41.207Z,18.75
2018-06-04T03:14:41.225Z,18.71
2018-06-04T03:15:41.158Z,18.76
2018-06-04T03:16:41.240Z,18.69
2018-06-04T03:17:41.680Z,18.66
2018-06-04T03:18:41.277Z,18.68
2018-06-04T03:19:43.350Z,18.60
2018-06-04T03:20:41.080Z,18.68
2018-06-04T03:21:41.132Z,18.64
2018-06-04T03:22:41.144Z,18.62
2018-06-04T03:23:41.079Z,18.59
2018-06-04T03:25:42.927Z,18.51
2018-06-04T03:26:41.143Z,18.60
2018-06-04T03:27:41.160Z,18.51
2018-06-04T03:28:41.154Z,18.59
2018-06-04T03:29:41.143Z,18.54
2018-06-04T03:30:41.138Z,18.53
2018-06-04T03:31:41.149Z,18.62
2018-06-04T03:32:41.205Z,18.56
2018-06-04T03:33:41.174Z,18.62
2018-06-04T03:34:41.161Z,18.64
2018-06-04T03:35:42.368Z,18.57
2018-06-04T03:36:41.269Z,18.56
2018-06-04T03:37:41.190Z,18.53
2018-06-04T03:38:41.212Z,18.53
2018-06-04T03:39:41.209Z,18.60
2018-06-04T03:40:41.235Z,18.59
2018-06-04T03:41:41.268Z,18.57
2018-06-04T03:42:41.187Z,18.60
2018-06-04T03:43:41.217Z,18.69
2018-06-04T03:44:41.214Z,18.62
2018-06-04T03:45:41.290Z,18.59
2018-06-04T03:46:41.090Z,18.60
2018-06-04T03:47:41.090Z,18.46
2018-06-04T03:48:41.099Z,18.65
2018-06-04T03:49:41.090Z,18.62
2018-06-04T03:50:41.114Z,18.65
2018-06-04T03:51:41.137Z,18.62
2018-06-04T03:52:41.153Z,18.59
2018-06-04T03:53:41.128Z,18.66
2018-06-04T03:54:41.139Z,18.72
2018-06-04T03:55:41.120Z,18.68
2018-06-04T03:56:41.130Z,18.62
2018-06-04T03:57:41.181Z,18.66
2018-06-04T03:58:41.153Z,18.65
2018-06-04T03:59:41.186Z,18.64
2018-06-04T04:00:41.157Z,18.68
2018-06-04T04:01:41.261Z,18.64
2018-06-04T04:02:41.245Z,18.62
2018-06-04T04:03:41.218Z,18.65
2018-06-04T04:04:41.219Z,18.66
2018-06-04T04:05:41.374Z,18.69
2018-06-04T04:06:41.295Z,18.57
2018-06-04T04:07:41.457Z,18.53
2018-06-04T04:08:41.300Z,18.49
2018-06-04T04:09:41.228Z,18.64
2018-06-04T04:10:41.178Z,18.68
2018-06-04T04:11:41.281Z,18.71
2018-06-04T04:12:41.867Z,18.71
2018-06-04T04:13:41.345Z,18.79
2018-06-04T04:14:41.349Z,18.79
2018-06-04T04:15:41.355Z,18.72
2018-06-04T04:16:41.382Z,18.74
2018-06-04T04:17:41.336Z,18.71
2018-06-04T04:18:41.341Z,18.78
2018-06-04T04:19:42.839Z,18.87
2018-06-04T04:20:41.250Z,18.79
2018-06-04T04:21:41.241Z,18.82
2018-06-04T04:22:41.213Z,18.87
2018-06-04T04:23:41.247Z,18.84
2018-06-04T04:24:41.238Z,18.90
2018-06-04T04:25:41.237Z,18.86
2018-06-04T04:27:42.031Z,18.86
2018-06-04T04:28:42.250Z,18.89
2018-06-04T04:29:41.940Z,18.83
2018-06-04T04:30:42.403Z,18.76
2018-06-04T04:31:42.913Z,18.78
2018-06-04T04:32:41.608Z,18.89
2018-06-04T04:33:41.297Z,19.01
2018-06-04T04:34:41.314Z,18.91
2018-06-04T04:35:42.274Z,18.93
2018-06-04T04:36:41.331Z,18.97
2018-06-04T04:37:41.361Z,18.94
2018-06-04T04:38:47.613Z,18.87
2018-06-04T04:39:48.554Z,19.01
2018-06-04T04:40:41.467Z,19.09
2018-06-04T04:41:41.376Z,19.12
2018-06-04T04:42:41.387Z,19.09
2018-06-04T04:43:42.923Z,19.07
2018-06-04T04:44:41.389Z,19.06
2018-06-04T04:45:41.393Z,18.99
2018-06-04T04:46:41.269Z,19.01
2018-06-04T04:47:41.513Z,18.96
2018-06-04T04:48:48.371Z,19.01
2018-06-04T04:49:42.729Z,19.07
2018-06-04T04:50:45.733Z,19.06
2018-06-04T04:51:41.212Z,19.10
2018-06-04T04:52:42.579Z,19.23
2018-06-04T04:53:41.886Z,19.21
2018-06-04T04:54:43.312Z,19.17
2018-06-04T04:55:41.311Z,19.15
2018-06-04T04:56:42.741Z,19.13
2018-06-04T04:57:41.229Z,19.09
2018-06-04T04:58:41.480Z,19.15
2018-06-04T04:59:41.337Z,19.23
2018-06-04T05:00:43.376Z,19.10
2018-06-04T05:01:41.029Z,19.16
2018-06-04T05:02:43.391Z,19.16
2018-06-04T05:03:43.749Z,19.23
2018-06-04T05:04:41.628Z,19.25
2018-06-04T05:05:41.852Z,19.23
2018-06-04T05:06:41.307Z,19.30
2018-06-04T05:07:41.355Z,19.25
2018-06-04T05:08:41.259Z,19.27
2018-06-04T05:09:41.250Z,19.32
2018-06-04T05:10:41.432Z,19.34
2018-06-04T05:11:41.304Z,19.35
2018-06-04T05:12:41.340Z,19.38
2018-06-04T05:13:41.318Z,19.40
2018-06-04T05:14:45.403Z,19.25
2018-06-04T05:15:41.248Z,19.32
2018-06-04T05:16:41.441Z,19.35
2018-06-04T05:17:41.013Z,19.49
2018-06-04T05:18:41.751Z,19.42
2018-06-04T05:19:41.255Z,19.49
2018-06-04T05:20:42.930Z,19.47
2018-06-04T05:21:41.759Z,19.53
2018-06-04T05:22:41.760Z,19.47
2018-06-04T05:23:41.437Z,19.58
2018-06-04T05:24:41.321Z,19.50
2018-06-04T05:25:42.200Z,19.50
2018-06-04T05:26:45.426Z,19.62
2018-06-04T05:27:47.575Z,19.58
2018-06-04T05:28:41.397Z,19.57
2018-06-04T05:29:41.790Z,19.57
2018-06-04T05:30:42.781Z,19.50
2018-06-04T05:31:42.931Z,19.50
2018-06-04T05:32:41.842Z,19.57
2018-06-04T05:33:41.303Z,19.64
2018-06-04T05:35:43.441Z,19.60
2018-06-04T05:36:41.453Z,19.61
2018-06-04T05:37:41.772Z,19.70
2018-06-04T05:38:49.436Z,19.61
2018-06-04T05:39:41.310Z,19.60
2018-06-04T05:40:43.540Z,19.43
2018-06-04T05:41:41.999Z,19.57
2018-06-04T05:42:41.455Z,19.65
2018-06-04T05:43:41.909Z,19.68
2018-06-04T05:44:42.405Z,19.67
2018-06-04T05:45:42.072Z,19.71
2018-06-04T05:46:41.482Z,19.61
2018-06-04T05:47:41.263Z,19.72
2018-06-04T05:48:41.408Z,19.67
2018-06-04T05:49:42.760Z,19.78
2018-06-04T05:50:41.948Z,19.85
2018-06-04T05:51:41.819Z,19.78
2018-06-04T05:52:41.425Z,19.86
2018-06-04T05:53:41.407Z,19.97
2018-06-04T05:54:41.396Z,19.85
2018-06-04T05:55:41.444Z,19.79
2018-06-04T05:56:42.084Z,19.86
2018-06-04T05:57:42.368Z,19.92
2018-06-04T05:58:43.753Z,19.94
2018-06-04T05:59:41.463Z,20.13
2018-06-04T06:00:41.769Z,20.12
2018-06-04T06:01:41.883Z,19.97
2018-06-04T06:02:43.784Z,20.02
2018-06-04T06:03:41.429Z,19.98
2018-06-04T06:04:43.769Z,20.00
2018-06-04T06:05:44.444Z,20.08
2018-06-04T06:06:41.731Z,20.19
2018-06-04T06:08:41.313Z,20.10
2018-06-04T06:09:41.771Z,20.13
2018-06-04T06:10:41.920Z,20.12
2018-06-04T06:11:41.266Z,20.10
2018-06-04T06:12:42.031Z,19.95
2018-06-04T06:13:41.913Z,20.04
2018-06-04T06:14:41.949Z,20.01
2018-06-04T06:15:41.401Z,20.15
2018-06-04T06:16:41.446Z,20.07
2018-06-04T06:17:41.617Z,20.16
2018-06-04T06:18:41.783Z,20.22
2018-06-04T06:19:43.451Z,20.30
2018-06-04T06:20:42.014Z,20.37
2018-06-04T06:21:41.734Z,20.34
2018-06-04T06:22:41.434Z,20.42
2018-06-04T06:24:47.915Z,20.34
2018-06-04T06:25:41.566Z,20.40
2018-06-04T06:26:41.930Z,20.31
2018-06-04T06:27:41.459Z,20.33
2018-06-04T06:28:41.807Z,20.33
2018-06-04T06:29:41.836Z,20.33
2018-06-04T06:30:41.422Z,20.31
2018-06-04T06:31:41.483Z,20.41
2018-06-04T06:32:41.880Z,20.34
2018-06-04T06:33:41.405Z,20.42
2018-06-04T06:34:41.393Z,20.44
2018-06-04T06:35:41.295Z,20.46
2018-06-04T06:36:41.723Z,20.41
2018-06-04T06:37:41.544Z,20.46
2018-06-04T06:38:41.965Z,20.51
2018-06-04T06:39:41.466Z,20.57
2018-06-04T06:40:41.969Z,20.51
2018-06-04T06:41:41.437Z,20.50
2018-06-04T06:42:41.453Z,20.46
2018-06-04T06:43:41.731Z,20.58
2018-06-04T06:44:41.725Z,20.61
2018-06-04T06:45:41.973Z,20.73
2018-06-04T06:46:42.269Z,20.81
2018-06-04T06:47:41.478Z,20.71
2018-06-04T06:48:42.016Z,20.66
2018-06-04T06:49:43.935Z,20.54
2018-06-04T06:50:41.829Z,20.54
2018-06-04T06:51:41.771Z,20.69
2018-06-04T06:52:42.012Z,20.75
2018-06-04T06:53:42.301Z,20.69
2018-06-04T06:54:41.930Z,20.69
2018-06-04T06:55:42.427Z,20.83
2018-06-04T06:56:44.806Z,20.83
2018-06-04T06:57:42.212Z,20.85
2018-06-04T06:58:41.812Z,20.96
2018-06-04T06:59:41.955Z,20.87
2018-06-04T07:00:42.037Z,20.85
2018-06-04T07:01:41.769Z,20.66
2018-06-04T07:02:42.019Z,20.75
2018-06-04T07:03:42.047Z,20.82
2018-06-04T07:04:43.012Z,20.82
2018-06-04T07:05:41.947Z,20.75
2018-06-04T07:06:45.932Z,20.79
2018-06-04T07:07:42.426Z,20.76
2018-06-04T07:08:41.091Z,20.90
2018-06-04T07:09:41.982Z,20.85
2018-06-04T07:10:41.686Z,20.73
2018-06-04T07:12:41.752Z,20.72
2018-06-04T07:13:42.031Z,20.42
2018-06-04T07:14:43.478Z,20.51
2018-06-04T07:15:42.274Z,20.53
2018-06-04T07:16:41.446Z,20.66
2018-06-04T07:17:41.907Z,20.69
2018-06-04T07:18:41.672Z,20.61
2018-06-04T07:19:42.004Z,20.68
2018-06-04T07:20:41.197Z,20.72
2018-06-04T07:21:42.015Z,20.64
2018-06-04T07:22:41.241Z,20.75
2018-06-04T07:23:46.282Z,20.90
2018-06-04T07:24:41.491Z,20.96
2018-06-04T07:25:41.941Z,21.06
2018-06-04T07:26:43.988Z,21.00
2018-06-04T07:27:43.503Z,21.11
2018-06-04T07:28:42.048Z,21.03
2018-06-04T07:29:43.487Z,21.03
2018-06-04T07:30:41.195Z,21.05
2018-06-04T07:31:41.989Z,21.05
2018-06-04T07:32:41.882Z,21.06
2018-06-04T07:33:41.950Z,21.05
2018-06-04T07:34:41.449Z,21.03
2018-06-04T07:35:42.017Z,21.24
2018-06-04T07:36:42.288Z,21.22
2018-06-04T07:37:41.740Z,21.30
2018-06-04T07:38:42.040Z,21.42
2018-06-04T07:39:41.987Z,21.43
2018-06-04T07:40:41.945Z,21.13
2018-06-04T07:41:44.003Z,21.27
2018-06-04T07:42:42.301Z,21.21
2018-06-04T07:43:41.950Z,21.27
2018-06-04T07:44:43.582Z,21.22
2018-06-04T07:46:41.491Z,21.33
2018-06-04T07:47:42.286Z,21.27
2018-06-04T07:48:41.783Z,21.34
2018-06-04T07:49:41.998Z,21.27
2018-06-04T07:50:41.499Z,21.43
2018-06-04T07:51:43.579Z,21.48
2018-06-04T07:52:42.084Z,21.53
2018-06-04T07:53:44.714Z,21.55
2018-06-04T07:54:42.541Z,21.53
2018-06-04T07:55:41.501Z,21.67
2018-06-04T07:56:41.451Z,21.55
2018-06-04T07:57:42.449Z,21.55
2018-06-04T07:58:41.450Z,21.55
2018-06-04T07:59:41.529Z,21.53
2018-06-04T08:00:42.720Z,21.61
2018-06-04T08:01:41.807Z,21.58
2018-06-04T08:02:41.278Z,21.68
2018-06-04T08:03:42.308Z,21.67
2018-06-04T08:04:41.282Z,21.63
2018-06-04T08:05:42.288Z,21.66
2018-06-04T08:06:41.485Z,21.77
2018-06-04T08:07:42.280Z,21.66
2018-06-04T08:08:42.089Z,21.66
2018-06-04T08:09:41.961Z,21.81
2018-06-04T08:10:42.108Z,21.79
2018-06-04T08:11:42.522Z,21.79
2018-06-04T08:12:42.002Z,21.83
2018-06-04T08:13:41.968Z,21.83
2018-06-04T08:14:42.298Z,21.71
2018-06-04T08:15:42.009Z,21.89
2018-06-04T08:16:42.046Z,21.77
2018-06-04T08:17:42.468Z,21.70
2018-06-04T08:18:41.471Z,21.83
2018-06-04T08:19:42.027Z,21.93
2018-06-04T08:20:41.970Z,22.04
2018-06-04T08:21:41.984Z,22.01
2018-06-04T08:22:42.323Z,22.05
2018-06-04T08:23:42.037Z,22.05
2018-06-04T08:24:42.062Z,21.90
2018-06-04T08:25:41.470Z,22.01
2018-06-04T08:26:44.567Z,22.15
2018-06-04T08:27:41.966Z,22.26
2018-06-04T08:28:42.011Z,22.29
2018-06-04T08:29:41.805Z,22.30
2018-06-04T08:30:42.298Z,22.33
2018-06-04T08:31:41.987Z,22.26
2018-06-04T08:32:42.357Z,22.21
2018-06-04T08:33:42.317Z,22.17
2018-06-04T08:34:42.059Z,22.26
2018-06-04T08:35:41.465Z,22.20
2018-06-04T08:36:41.811Z,22.29
2018-06-04T08:37:42.019Z,22.39
2018-06-04T08:38:41.506Z,22.45
2018-06-04T08:39:41.807Z,22.36
2018-06-04T08:40:42.330Z,22.35
2018-06-04T08:41:41.792Z,22.33
2018-06-04T08:43:42.019Z,22.33
2018-06-04T08:44:41.881Z,22.44
2018-06-04T08:45:42.120Z,22.48
2018-06-04T08:46:42.015Z,22.51
2018-06-04T08:47:42.076Z,22.44
2018-06-04T08:48:42.024Z,22.49
2018-06-04T08:49:42.350Z,22.52
2018-06-04T08:50:41.345Z,22.44
2018-06-04T08:51:41.760Z,22.41
2018-06-04T08:52:42.018Z,22.54
2018-06-04T08:53:42.018Z,22.42
2018-06-04T08:54:49.412Z,22.59
2018-06-04T08:55:50.445Z,22.48
2018-06-04T08:56:41.973Z,22.54
2018-06-04T08:57:41.980Z,22.56
2018-06-04T08:58:41.365Z,22.54
2018-06-04T08:59:41.785Z,22.52
2018-06-04T09:00:42.027Z,22.54
2018-06-04T09:01:44.325Z,22.57
2018-06-04T09:02:42.026Z,22.38
2018-06-04T09:03:41.834Z,22.48
2018-06-04T09:04:42.044Z,22.57
2018-06-04T09:05:42.059Z,22.72
2018-06-04T09:06:42.237Z,22.81
2018-06-04T09:07:42.027Z,22.82
2018-06-04T09:08:41.999Z,22.99
2018-06-04T09:09:41.991Z,22.93
2018-06-04T09:10:42.355Z,22.82
2018-06-04T09:11:42.481Z,22.97
2018-06-04T09:12:41.979Z,22.93
2018-06-04T09:13:42.326Z,23.15
2018-06-04T09:14:42.321Z,23.22
2018-06-04T09:15:42.540Z,23.26
2018-06-04T09:16:42.027Z,23.41
2018-06-04T09:17:41.801Z,23.47
2018-06-04T09:18:42.109Z,23.38
2018-06-04T09:19:41.889Z,23.44
2018-06-04T09:20:41.787Z,23.39
2018-06-04T09:21:41.873Z,23.49
2018-06-04T09:22:41.916Z,23.50
2018-06-04T09:23:41.784Z,23.49
2018-06-04T09:24:41.493Z,23.45
2018-06-04T09:25:45.936Z,23.57
2018-06-04T09:26:42.801Z,23.64
2018-06-04T09:27:43.710Z,23.64
2018-06-04T09:28:41.777Z,23.79
2018-06-04T09:29:42.062Z,23.87
2018-06-04T09:30:42.527Z,23.96
2018-06-04T09:31:44.379Z,23.82
2018-06-04T09:32:42.446Z,23.84
2018-06-04T09:33:41.852Z,23.97
2018-06-04T09:34:42.063Z,24.00
2018-06-04T09:35:42.073Z,24.09
2018-06-04T09:36:41.868Z,24.15
2018-06-04T09:37:42.061Z,24.21
2018-06-04T09:38:42.341Z,24.36
2018-06-04T09:39:41.937Z,24.48
2018-06-04T09:40:42.047Z,24.33
2018-06-04T09:41:41.984Z,24.41
2018-06-04T09:42:41.992Z,24.33
2018-06-04T09:43:42.361Z,24.15
2018-06-04T09:44:42.125Z,24.15
2018-06-04T09:45:42.908Z,24.27
2018-06-04T09:46:42.002Z,24.27
2018-06-04T09:47:42.055Z,24.27
2018-06-04T09:48:42.521Z,24.12
2018-06-04T09:49:41.878Z,24.23
2018-06-04T09:50:42.095Z,24.21
2018-06-04T09:51:42.832Z,24.21
2018-06-04T09:52:42.278Z,24.09
2018-06-04T09:53:41.994Z,24.14
2018-06-04T09:54:42.056Z,24.06
2018-06-04T09:55:42.343Z,24.34
2018-06-04T09:56:42.021Z,24.44
2018-06-04T09:57:42.555Z,24.64
2018-06-04T09:58:42.048Z,24.59
2018-06-04T09:59:42.079Z,24.60
2018-06-04T10:00:43.617Z,24.70
2018-06-04T10:01:44.063Z,24.71
2018-06-04T10:02:42.501Z,24.75
2018-06-04T10:03:41.929Z,24.93
2018-06-04T10:04:42.403Z,24.90
2018-06-04T10:05:43.226Z,24.93
2018-06-04T10:06:44.088Z,24.99
2018-06-04T10:07:42.517Z,24.83
2018-06-04T10:08:42.424Z,24.84
2018-06-04T10:09:43.369Z,24.86
2018-06-04T10:10:42.001Z,24.92
2018-06-04T10:11:42.735Z,24.70
2018-06-04T10:14:50.504Z,24.68
2018-06-04T10:15:44.311Z,24.41
2018-06-04T10:16:43.983Z,24.37
2018-06-04T10:17:44.517Z,24.60
2018-06-04T10:18:42.559Z,24.61
2018-06-04T10:19:44.054Z,24.61
2018-06-04T10:20:42.054Z,24.49
2018-06-04T10:21:42.587Z,24.46
2018-06-04T10:22:43.464Z,24.60
2018-06-04T10:23:42.499Z,24.64
2018-06-04T10:24:45.273Z,24.67
2018-06-04T10:25:44.021Z,24.87
2018-06-04T10:26:42.623Z,24.90
2018-06-04T10:27:42.571Z,25.09
2018-06-04T10:28:42.592Z,25.08
2018-06-04T10:29:42.019Z,24.82
2018-06-04T10:30:49.574Z,24.83
2018-06-04T10:31:42.568Z,24.79
2018-06-04T10:32:50.800Z,24.56
2018-06-04T10:34:05.551Z,24.51
2018-06-04T10:34:43.102Z,24.63
2018-06-04T10:35:42.350Z,24.87
2018-06-04T10:36:50.723Z,24.74
2018-06-04T10:37:49.057Z,24.60
2018-06-04T10:38:43.336Z,24.71
2018-06-04T10:39:44.272Z,24.86
2018-06-04T10:41:43.760Z,24.98
2018-06-04T10:42:43.286Z,24.94
2018-06-04T10:43:42.796Z,25.02
2018-06-04T10:44:42.530Z,25.19
2018-06-04T10:45:44.581Z,25.29
2018-06-04T10:46:42.582Z,25.05
2018-06-04T10:47:43.612Z,25.23
2018-06-04T10:48:42.069Z,25.26
2018-06-04T10:49:42.952Z,25.35
2018-06-04T10:50:44.632Z,25.57
2018-06-04T10:51:42.460Z,25.64
2018-06-04T10:52:42.535Z,25.66
2018-06-04T10:53:48.010Z,25.81
2018-06-04T10:54:49.030Z,25.86
2018-06-04T10:55:42.587Z,25.93
2018-06-04T10:56:42.440Z,25.82
2018-06-04T10:57:44.287Z,25.78
2018-06-04T10:58:42.607Z,25.81
2018-06-04T10:59:42.535Z,26.00
2018-06-04T11:00:42.379Z,25.90
2018-06-04T11:01:42.637Z,25.94
2018-06-04T11:02:45.072Z,25.97
2018-06-04T11:03:42.898Z,25.90
2018-06-04T11:04:42.884Z,25.98
2018-06-04T11:05:42.454Z,25.93
2018-06-04T11:06:42.460Z,25.78
2018-06-04T11:07:42.039Z,25.79
2018-06-04T11:08:49.113Z,25.89
2018-06-04T11:09:49.175Z,25.93
2018-06-04T11:10:41.966Z,25.89
2018-06-04T11:11:44.932Z,26.28
2018-06-04T11:12:44.296Z,26.06
2018-06-04T11:13:44.824Z,26.21
2018-06-04T11:14:44.858Z,26.11
2018-06-04T11:15:42.543Z,26.04
2018-06-04T11:16:42.238Z,25.97
2018-06-04T11:17:42.050Z,26.12
2018-06-04T11:18:49.455Z,26.19
2018-06-04T11:19:43.690Z,26.27
2018-06-04T11:20:44.391Z,26.24
2018-06-04T11:21:42.890Z,26.11
2018-06-04T11:23:03.377Z,26.32
2018-06-04T11:23:42.391Z,26.49
2018-06-04T11:24:42.634Z,26.53
2018-06-04T11:25:59.271Z,26.47
2018-06-04T11:27:05.984Z,26.34
2018-06-04T11:27:44.292Z,26.47
2018-06-04T11:28:57.627Z,26.59
2018-06-04T11:29:42.696Z,27.02
2018-06-04T11:30:43.575Z,26.97
2018-06-04T11:31:49.150Z,27.12
2018-06-04T11:32:46.545Z,26.84
2018-06-04T11:34:18.089Z,27.01
2018-06-04T11:34:41.042Z,26.86
2018-06-04T11:35:43.531Z,26.90
2018-06-04T11:37:42.384Z,26.61
2018-06-04T11:38:42.558Z,26.59
2018-06-04T11:39:42.673Z,26.56
2018-06-04T11:40:42.980Z,26.61
2018-06-04T11:41:42.560Z,26.59
2018-06-04T11:42:43.013Z,26.29
2018-06-04T11:43:42.109Z,26.42
2018-06-04T11:44:42.512Z,26.69
2018-06-04T11:45:42.327Z,27.02
2018-06-04T11:46:43.559Z,27.30
2018-06-04T11:47:42.064Z,27.66
2018-06-04T11:48:42.381Z,27.88
2018-06-04T11:49:42.568Z,27.42
2018-06-04T11:50:42.619Z,27.21
2018-06-04T11:51:42.544Z,27.23
2018-06-04T11:52:43.078Z,27.06
2018-06-04T11:53:42.544Z,27.30
2018-06-04T11:54:44.628Z,27.01
2018-06-04T11:55:44.611Z,27.02
2018-06-04T11:56:42.941Z,27.11
2018-06-04T11:57:42.895Z,27.09
2018-06-04T11:58:42.942Z,26.79
2018-06-04T11:59:42.925Z,27.30
2018-06-04T12:00:43.157Z,27.49
2018-06-04T12:01:45.038Z,27.40
2018-06-04T12:02:42.949Z,27.08
2018-06-04T12:03:42.587Z,26.81
2018-06-04T12:04:42.584Z,26.86
2018-06-04T12:05:42.921Z,26.90
2018-06-04T12:06:42.517Z,26.44
2018-06-04T12:07:42.649Z,26.65
2018-06-04T12:08:43.116Z,27.01
2018-06-04T12:09:44.738Z,27.05
2018-06-04T12:10:43.122Z,27.35
2018-06-04T12:11:43.187Z,27.28
2018-06-04T12:12:42.289Z,26.97
2018-06-04T12:13:43.574Z,27.01
2018-06-04T12:14:42.660Z,27.13
2018-06-04T12:15:45.307Z,27.28
2018-06-04T12:16:43.141Z,27.12
2018-06-04T12:17:43.126Z,27.02
2018-06-04T12:18:43.179Z,26.78
2018-06-04T12:19:42.915Z,26.71
2018-06-04T12:20:43.119Z,26.84
2018-06-04T12:21:43.171Z,26.87
2018-06-04T12:22:43.085Z,27.02
2018-06-04T12:23:45.181Z,27.43
2018-06-04T12:24:43.172Z,27.78
2018-06-04T12:25:43.092Z,27.35
2018-06-04T12:26:42.929Z,27.93
2018-06-04T12:27:42.884Z,28.08
2018-06-04T12:28:43.789Z,28.05
2018-06-04T12:29:43.078Z,27.95
2018-06-04T12:30:45.543Z,27.90
2018-06-04T12:31:43.445Z,28.42
2018-06-04T12:32:43.083Z,28.42
2018-06-04T12:34:43.406Z,28.09
2018-06-04T12:35:42.690Z,28.46
2018-06-04T12:36:43.137Z,28.85
2018-06-04T12:37:51.917Z,29.17
2018-06-04T12:38:45.189Z,28.91
2018-06-04T12:39:42.994Z,29.05
2018-06-04T12:40:43.087Z,28.50
2018-06-04T12:41:49.690Z,28.82
2018-06-04T12:42:49.665Z,29.02
2018-06-04T12:43:43.174Z,29.26
2018-06-04T12:44:44.964Z,29.45
2018-06-04T12:45:43.193Z,29.85
2018-06-04T12:46:42.904Z,30.07
2018-06-04T12:47:42.903Z,30.29
2018-06-04T12:48:43.142Z,30.06
2018-06-04T12:49:43.011Z,29.74
2018-06-04T12:50:43.180Z,30.03
2018-06-04T12:51:42.899Z,30.28
2018-06-04T12:52:45.595Z,29.66
2018-06-04T12:53:42.903Z,29.78
2018-06-04T12:54:42.916Z,29.67
2018-06-04T12:55:43.219Z,29.51
2018-06-04T12:56:43.443Z,29.37
2018-06-04T12:57:43.393Z,29.84
2018-06-04T12:58:45.458Z,30.42
2018-06-04T12:59:45.137Z,30.29
2018-06-04T13:00:43.060Z,29.73
2018-06-04T13:01:45.601Z,30.40
2018-06-04T13:02:44.215Z,30.34
2018-06-04T13:03:43.994Z,30.79
2018-06-04T13:04:43.502Z,30.30
2018-06-04T13:05:43.454Z,30.13
2018-06-04T13:06:43.989Z,29.79
2018-06-04T13:07:43.357Z,29.60
2018-06-04T13:08:47.946Z,28.72